createdAt,value
2022-07-31T00:00:47.952Z,80.50
2022-07-31T00:03:16.896Z,80.49
2022-07-31T00:05:45.257Z,80.16
2022-07-31T00:08:15.603Z,80.63
2022-07-31T00:10:43.857Z,80.78
2022-07-31T00:13:12.058Z,80.90
2022-07-31T00:15:41.629Z,80.51
2022-07-31T00:18:09.897Z,80.09
2022-07-31T00:20:38.404Z,80.44
2022-07-31T00:23:06.676Z,80.51
2022-07-31T00:25:34.950Z,81.44
2022-07-31T00:28:08.288Z,81.22
2022-07-31T00:30:36.620Z,81.05
2022-07-31T00:33:06.934Z,81.26
2022-07-31T00:35:36.063Z,81.88
2022-07-31T00:38:26.122Z,81.97
2022-07-31T00:40:53.829Z,82.32
2022-07-31T00:43:22.826Z,82.71
2022-07-31T00:45:59.010Z,82.66
2022-07-31T00:48:29.000Z,82.55
2022-07-31T00:50:58.214Z,82.94
2022-07-31T00:53:26.652Z,83.48
2022-07-31T00:55:57.020Z,83.27
2022-07-31T00:58:25.925Z,83.42
2022-07-31T01:00:54.675Z,82.62
2022-07-31T01:03:23.390Z,83.44
2022-07-31T01:05:53.020Z,82.04
2022-07-31T01:08:21.277Z,83.46
2022-07-31T01:10:57.507Z,83.29
2022-07-31T01:13:34.061Z,83.28
2022-07-31T01:16:04.773Z,83.23
2022-07-31T01:18:38.369Z,83.61
2022-07-31T01:21:13.064Z,84.53
2022-07-31T01:24:08.563Z,84.10
2022-07-31T01:27:04.150Z,84.21
2022-07-31T01:29:39.077Z,82.77
2022-07-31T01:32:13.319Z,84.23
2022-07-31T01:34:45.786Z,84.04
2022-07-31T01:37:22.947Z,83.98
2022-07-31T01:39:57.239Z,84.76
2022-07-31T01:42:26.928Z,84.49
2022-07-31T01:45:01.602Z,85.10
2022-07-31T01:47:32.300Z,84.23
2022-07-31T01:50:04.836Z,84.40
2022-07-31T01:52:35.757Z,85.00
2022-07-31T01:55:06.707Z,84.59
2022-07-31T01:57:36.314Z,85.01
2022-07-31T02:00:33.645Z,85.63
2022-07-31T02:05:54.159Z,85.17
2022-07-31T02:08:24.098Z,85.33
2022-07-31T02:10:55.850Z,85.32
2022-07-31T02:13:25.789Z,85.64
2022-07-31T02:15:57.454Z,84.96
2022-07-31T02:18:52.485Z,83.90
2022-07-31T02:21:26.500Z,84.50
2022-07-31T02:23:55.073Z,84.63
2022-07-31T02:26:24.034Z,85.32
2022-07-31T02:28:53.643Z,85.58
2022-07-31T02:31:24.549Z,85.35
2022-07-31T02:33:54.691Z,85.34
2022-07-31T02:36:23.739Z,85.68
2022-07-31T02:38:54.969Z,85.52
2022-07-31T02:41:26.094Z,86.00
2022-07-31T02:43:54.825Z,86.71
2022-07-31T02:46:28.117Z,87.29
2022-07-31T02:48:57.987Z,87.35
2022-07-31T02:51:26.587Z,87.11
2022-07-31T02:53:56.099Z,87.21
2022-07-31T02:56:27.326Z,87.06
2022-07-31T02:58:55.697Z,86.42
2022-07-31T03:01:28.865Z,86.01
2022-07-31T03:03:57.944Z,85.16
2022-07-31T03:06:29.434Z,85.74
2022-07-31T03:08:57.657Z,86.06
2022-07-31T03:11:26.787Z,86.40
2022-07-31T03:13:58.292Z,86.64
2022-07-31T03:16:29.401Z,87.57
2022-07-31T03:18:59.303Z,88.00
2022-07-31T03:21:27.852Z,87.91
2022-07-31T03:23:56.304Z,87.48
2022-07-31T03:26:24.852Z,86.56
2022-07-31T03:28:53.052Z,87.03
2022-07-31T03:31:21.655Z,86.28
2022-07-31T03:33:51.213Z,86.70
2022-07-31T03:36:19.538Z,85.46
2022-07-31T03:38:50.613Z,85.30
2022-07-31T03:41:31.223Z,86.26
2022-07-31T03:44:00.100Z,86.21
2022-07-31T03:46:28.501Z,86.47
2022-07-31T03:48:58.523Z,86.88
2022-07-31T03:51:28.739Z,86.89
2022-07-31T03:53:57.212Z,86.61
2022-07-31T03:56:50.134Z,87.50
2022-07-31T03:59:21.587Z,87.87
2022-07-31T04:01:57.882Z,87.57
2022-07-31T04:05:10.027Z,88.74
2022-07-31T04:07:40.522Z,88.88
2022-07-31T04:10:10.435Z,89.83
2022-07-31T04:12:39.418Z,91.01
2022-07-31T04:15:08.801Z,90.93
2022-07-31T04:17:37.781Z,91.66
2022-07-31T04:20:11.437Z,91.23
2022-07-31T04:22:40.325Z,90.89
2022-07-31T04:25:16.296Z,90.30
2022-07-31T04:27:50.769Z,90.48
2022-07-31T04:30:19.164Z,89.69
2022-07-31T04:32:48.472Z,89.13
2022-07-31T04:35:23.258Z,89.67
2022-07-31T04:37:51.707Z,88.85
2022-07-31T04:40:21.917Z,88.80
2022-07-31T04:42:50.242Z,88.63
2022-07-31T04:45:18.810Z,88.63
2022-07-31T04:47:47.040Z,88.19
2022-07-31T04:50:15.680Z,87.99
2022-07-31T04:52:58.011Z,88.83
2022-07-31T04:55:30.197Z,89.46
2022-07-31T04:57:58.384Z,89.67
2022-07-31T05:00:27.240Z,90.54
2022-07-31T05:02:56.131Z,90.36
2022-07-31T05:05:24.939Z,90.13
2022-07-31T05:07:53.076Z,89.94
2022-07-31T05:10:48.425Z,89.84
2022-07-31T05:13:16.742Z,89.98
2022-07-31T05:15:45.061Z,90.26
2022-07-31T05:18:13.317Z,90.50
2022-07-31T05:21:00.197Z,90.69
2022-07-31T05:23:50.595Z,91.11
2022-07-31T05:26:29.009Z,91.58
2022-07-31T05:28:59.802Z,91.19
2022-07-31T05:31:28.795Z,91.91
2022-07-31T05:33:59.140Z,91.38
2022-07-31T05:36:27.827Z,91.48
2022-07-31T05:38:56.334Z,92.08
2022-07-31T05:41:41.193Z,91.30
2022-07-31T05:44:15.099Z,91.37
2022-07-31T05:49:20.595Z,89.24
2022-07-31T05:51:54.503Z,89.75
2022-07-31T05:54:23.280Z,88.23
2022-07-31T05:57:11.494Z,87.36
2022-07-31T05:59:59.760Z,87.56
2022-07-31T06:03:03.934Z,88.25
2022-07-31T06:05:57.549Z,88.36
2022-07-31T06:08:26.308Z,89.46
2022-07-31T06:10:55.113Z,89.21
2022-07-31T06:13:27.431Z,88.94
2022-07-31T06:15:56.634Z,89.02
2022-07-31T06:18:25.469Z,89.93
2022-07-31T06:20:53.740Z,88.89
2022-07-31T06:23:29.778Z,88.03
2022-07-31T06:26:17.056Z,86.89
2022-07-31T06:28:49.215Z,86.15
2022-07-31T06:31:20.545Z,84.00
2022-07-31T06:33:51.047Z,82.02
2022-07-31T06:36:22.043Z,81.22
2022-07-31T06:38:57.840Z,79.79
2022-07-31T06:41:47.287Z,77.02
2022-07-31T06:44:33.716Z,76.75
2022-07-31T06:47:18.634Z,76.35
2022-07-31T06:50:12.106Z,76.88
2022-07-31T06:52:53.196Z,75.75
2022-07-31T06:55:24.167Z,75.23
2022-07-31T06:57:52.569Z,75.18
2022-07-31T07:00:22.175Z,73.84
2022-07-31T07:02:52.649Z,73.34
2022-07-31T07:05:21.655Z,70.85
2022-07-31T07:07:53.136Z,70.36
2022-07-31T07:10:21.529Z,69.58
2022-07-31T07:13:09.958Z,68.43
2022-07-31T07:15:39.624Z,67.75
2022-07-31T07:18:08.295Z,68.74
2022-07-31T07:20:42.462Z,69.26
2022-07-31T07:23:10.694Z,67.63
2022-07-31T07:25:47.727Z,68.00
2022-07-31T07:28:30.476Z,66.71
2022-07-31T07:31:02.753Z,67.61
2022-07-31T07:33:40.674Z,65.48
2022-07-31T07:36:22.499Z,65.99
2022-07-31T07:38:55.938Z,65.15
2022-07-31T07:41:25.539Z,63.84
2022-07-31T07:43:54.197Z,63.50
2022-07-31T07:46:26.675Z,63.21
2022-07-31T07:49:00.268Z,63.85
2022-07-31T07:51:59.273Z,63.23
2022-07-31T07:54:43.104Z,62.81
2022-07-31T07:57:30.354Z,60.15
2022-07-31T08:00:18.945Z,60.13
2022-07-31T08:03:46.721Z,59.31
2022-07-31T08:05:47.100Z,56.49
2022-07-31T08:08:15.521Z,53.96
2022-07-31T08:11:04.892Z,52.48
2022-07-31T08:13:57.592Z,52.59
2022-07-31T08:16:37.749Z,53.21
2022-07-31T08:19:09.016Z,53.17
2022-07-31T08:21:37.602Z,52.25
2022-07-31T08:24:06.184Z,52.58
2022-07-31T08:26:48.500Z,53.19
2022-07-31T08:29:16.809Z,52.53
2022-07-31T08:31:58.205Z,52.73
2022-07-31T08:34:58.516Z,53.97
2022-07-31T08:38:01.187Z,53.34
2022-07-31T08:40:15.319Z,53.87
2022-07-31T08:42:46.273Z,53.89
2022-07-31T08:45:15.792Z,53.90
2022-07-31T08:47:58.197Z,53.01
2022-07-31T08:50:32.768Z,52.84
2022-07-31T08:53:04.481Z,52.64
2022-07-31T08:55:56.215Z,51.51
2022-07-31T08:58:26.891Z,51.40
2022-07-31T09:00:55.906Z,51.93
2022-07-31T09:03:24.438Z,51.78
2022-07-31T09:06:01.893Z,51.95
2022-07-31T09:08:33.767Z,51.47
2022-07-31T09:11:07.363Z,51.68
2022-07-31T09:14:01.439Z,51.16
2022-07-31T09:16:47.642Z,51.15
2022-07-31T09:19:51.174Z,51.04
2022-07-31T09:22:23.803Z,50.31
2022-07-31T09:24:53.193Z,50.19
2022-07-31T09:27:29.451Z,50.24
2022-07-31T09:29:59.933Z,50.16
2022-07-31T09:32:51.102Z,50.08
2022-07-31T09:35:39.828Z,49.47
2022-07-31T09:38:11.344Z,49.93
2022-07-31T09:41:53.495Z,49.69
2022-07-31T09:44:13.593Z,49.63
2022-07-31T09:46:44.528Z,48.65
2022-07-31T09:49:13.434Z,48.17
2022-07-31T09:51:44.958Z,47.86
2022-07-31T09:54:27.418Z,47.54
2022-07-31T09:57:13.096Z,47.58
2022-07-31T09:59:52.941Z,47.22
2022-07-31T10:02:22.371Z,46.69
2022-07-31T10:04:55.843Z,46.90
2022-07-31T10:07:32.762Z,46.06
2022-07-31T10:10:26.263Z,44.64
2022-07-31T10:13:04.828Z,45.41
2022-07-31T10:15:34.595Z,44.21
2022-07-31T10:18:36.152Z,43.06
2022-07-31T10:21:29.421Z,43.29
2022-07-31T10:24:09.577Z,43.32
2022-07-31T10:26:59.928Z,44.42
2022-07-31T10:29:32.935Z,44.25
2022-07-31T10:32:04.061Z,43.32
2022-07-31T10:34:35.444Z,43.46
2022-07-31T10:37:33.116Z,43.45
2022-07-31T10:40:26.938Z,44.54
2022-07-31T10:43:19.324Z,45.03
2022-07-31T10:46:03.512Z,43.48
2022-07-31T10:48:54.579Z,43.44
2022-07-31T10:51:49.552Z,42.89
2022-07-31T10:54:42.473Z,43.75
2022-07-31T10:57:32.502Z,44.12
2022-07-31T11:00:41.027Z,43.51
2022-07-31T11:03:27.863Z,43.18
2022-07-31T11:06:41.104Z,43.81
2022-07-31T11:09:50.613Z,42.59
2022-07-31T11:13:01.485Z,43.66
2022-07-31T11:16:05.399Z,43.46
2022-07-31T11:18:58.652Z,44.29
2022-07-31T11:21:38.864Z,44.15
2022-07-31T11:24:15.225Z,44.13
2022-07-31T11:26:50.734Z,43.80
2022-07-31T11:30:00.006Z,43.75
2022-07-31T11:32:25.910Z,43.53
2022-07-31T11:34:56.940Z,43.81
2022-07-31T11:37:34.302Z,43.65
2022-07-31T11:40:15.623Z,43.12
2022-07-31T11:42:46.125Z,43.38
2022-07-31T11:45:15.400Z,43.07
2022-07-31T11:48:11.531Z,43.65
2022-07-31T11:50:41.541Z,44.38
2022-07-31T11:53:09.973Z,43.74
2022-07-31T11:55:50.473Z,44.23
2022-07-31T11:58:20.737Z,44.01
2022-07-31T12:00:51.784Z,44.12
2022-07-31T12:03:26.525Z,44.17
2022-07-31T12:05:55.089Z,43.73
2022-07-31T12:08:25.222Z,44.47
2022-07-31T12:10:54.678Z,43.43
2022-07-31T12:13:24.464Z,43.64
2022-07-31T12:16:01.147Z,44.57
2022-07-31T12:18:33.963Z,43.92
2022-07-31T12:21:04.874Z,43.96
2022-07-31T12:23:43.535Z,43.83
2022-07-31T12:26:17.163Z,43.24
2022-07-31T12:28:45.431Z,43.73
2022-07-31T12:31:13.785Z,43.87
2022-07-31T12:33:45.738Z,43.15
2022-07-31T12:36:16.451Z,43.46
2022-07-31T12:38:48.335Z,44.17
2022-07-31T12:41:18.049Z,43.63
2022-07-31T12:43:51.317Z,43.78
2022-07-31T12:46:22.794Z,44.66
2022-07-31T12:48:52.518Z,44.31
2022-07-31T12:51:44.807Z,44.37
2022-07-31T12:54:10.491Z,44.88
2022-07-31T12:56:40.928Z,44.41
2022-07-31T12:59:10.323Z,44.76
2022-07-31T13:01:39.075Z,44.58
2022-07-31T13:04:19.145Z,44.82
2022-07-31T13:06:51.504Z,44.31
2022-07-31T13:09:20.999Z,44.01
2022-07-31T13:11:52.128Z,44.40
2022-07-31T13:14:24.479Z,44.07
2022-07-31T13:16:55.036Z,44.61
2022-07-31T13:19:24.867Z,44.79
2022-07-31T13:21:56.865Z,43.97
2022-07-31T13:24:25.786Z,44.98
2022-07-31T13:26:54.073Z,44.86
2022-07-31T13:29:22.351Z,45.04
2022-07-31T13:31:50.667Z,45.55
2022-07-31T13:34:19.031Z,45.21
2022-07-31T13:36:48.637Z,45.00
2022-07-31T13:39:17.111Z,44.83
2022-07-31T13:41:45.357Z,44.82
2022-07-31T13:44:13.624Z,45.06
2022-07-31T13:46:41.908Z,44.05
2022-07-31T13:49:11.602Z,44.28
2022-07-31T13:51:40.222Z,44.59
2022-07-31T13:54:10.058Z,44.45
2022-07-31T13:56:43.005Z,43.62
2022-07-31T13:59:14.058Z,44.23
2022-07-31T14:02:04.782Z,43.90
2022-07-31T14:04:38.619Z,44.04
2022-07-31T14:07:09.151Z,44.53
2022-07-31T14:09:39.016Z,43.80
2022-07-31T14:12:15.525Z,44.38
2022-07-31T14:14:43.720Z,44.29
2022-07-31T14:17:11.923Z,44.81
2022-07-31T14:19:44.347Z,44.44
2022-07-31T14:22:14.327Z,43.50
2022-07-31T14:24:49.931Z,43.90
2022-07-31T14:27:20.709Z,43.11
2022-07-31T14:29:49.334Z,43.69
2022-07-31T14:32:19.241Z,43.76
2022-07-31T14:34:47.651Z,43.85
2022-07-31T14:37:15.950Z,43.70
2022-07-31T14:39:45.800Z,43.12
2022-07-31T14:42:14.335Z,43.52
2022-07-31T14:44:43.009Z,43.14
2022-07-31T14:47:12.174Z,43.22
2022-07-31T14:50:07.493Z,42.43
2022-07-31T14:52:29.135Z,42.57
2022-07-31T14:54:59.708Z,42.80
2022-07-31T14:57:28.182Z,42.50
2022-07-31T14:59:56.799Z,42.10
2022-07-31T15:02:25.468Z,41.93
2022-07-31T15:04:54.481Z,42.42
2022-07-31T15:07:45.830Z,42.08
2022-07-31T15:10:13.321Z,41.86
2022-07-31T15:12:41.773Z,41.89
2022-07-31T15:15:12.002Z,41.67
2022-07-31T15:17:40.283Z,41.61
2022-07-31T15:20:09.713Z,41.85
2022-07-31T15:22:37.958Z,42.23
2022-07-31T15:25:07.861Z,42.81
2022-07-31T15:27:37.892Z,41.72
2022-07-31T15:30:08.135Z,41.84
2022-07-31T15:32:38.315Z,42.12
2022-07-31T15:35:09.493Z,41.72
2022-07-31T15:37:39.893Z,41.83
2022-07-31T15:40:13.289Z,43.48
2022-07-31T15:42:46.581Z,43.54
2022-07-31T15:45:17.495Z,43.89
2022-07-31T15:47:47.385Z,43.95
2022-07-31T15:50:18.752Z,43.66
2022-07-31T15:52:47.431Z,44.33
2022-07-31T15:55:16.936Z,43.73
2022-07-31T15:57:47.171Z,43.86
2022-07-31T16:00:16.559Z,44.08
2022-07-31T16:02:45.657Z,43.72
2022-07-31T16:05:21.798Z,43.46
2022-07-31T16:08:30.445Z,43.72
2022-07-31T16:10:54.475Z,44.28
2022-07-31T16:13:25.135Z,44.10
2022-07-31T16:15:54.244Z,43.65
2022-07-31T16:18:22.588Z,44.07
2022-07-31T16:20:50.971Z,44.10
2022-07-31T16:23:19.334Z,44.75
2022-07-31T16:25:47.789Z,43.34
2022-07-31T16:28:16.118Z,44.19
2022-07-31T16:30:46.677Z,44.66
2022-07-31T16:33:15.386Z,44.19
2022-07-31T16:35:43.978Z,45.10
2022-07-31T16:38:12.415Z,44.15
2022-07-31T16:40:41.024Z,44.78
2022-07-31T16:43:47.713Z,44.02
2022-07-31T16:45:59.628Z,43.54
2022-07-31T16:48:28.089Z,44.06
2022-07-31T16:50:56.324Z,43.61
2022-07-31T16:54:10.989Z,43.71
2022-07-31T16:56:13.666Z,43.50
2022-07-31T16:58:43.810Z,43.87
2022-07-31T17:01:59.429Z,44.11
2022-07-31T17:04:04.451Z,44.11
2022-07-31T17:06:36.187Z,44.00
2022-07-31T17:09:17.405Z,43.61
2022-07-31T17:11:48.429Z,43.85
2022-07-31T17:14:17.448Z,43.35
2022-07-31T17:16:50.173Z,43.86
2022-07-31T17:19:42.389Z,44.05
2022-07-31T17:22:11.133Z,43.92
2022-07-31T17:24:40.631Z,43.68
2022-07-31T17:27:10.374Z,44.47
2022-07-31T17:29:39.533Z,44.15
2022-07-31T17:32:11.377Z,44.23
2022-07-31T17:34:40.443Z,45.39
2022-07-31T17:37:09.282Z,44.46
2022-07-31T17:39:37.802Z,45.61
2022-07-31T17:42:06.664Z,45.24
2022-07-31T17:44:38.222Z,45.18
2022-07-31T17:47:10.093Z,44.85
2022-07-31T17:49:38.913Z,45.23
2022-07-31T17:52:07.624Z,44.92
2022-07-31T17:54:35.944Z,44.78
2022-07-31T17:57:05.059Z,45.26
2022-07-31T17:59:34.002Z,45.09
2022-07-31T18:02:26.653Z,44.95
2022-07-31T18:04:56.372Z,45.41
2022-07-31T18:07:25.613Z,45.27
2022-07-31T18:09:53.783Z,44.82
2022-07-31T18:12:24.334Z,45.26
2022-07-31T18:14:52.846Z,45.03
2022-07-31T18:17:21.869Z,45.88
2022-07-31T18:19:52.603Z,45.98
2022-07-31T18:22:22.260Z,45.89
2022-07-31T18:24:50.581Z,46.30
2022-07-31T18:27:18.950Z,46.47
2022-07-31T18:29:54.324Z,46.04
2022-07-31T18:32:24.323Z,46.17
2022-07-31T18:34:52.712Z,46.83
2022-07-31T18:37:22.326Z,46.51
2022-07-31T18:39:50.661Z,46.84
2022-07-31T18:42:18.913Z,46.59
2022-07-31T18:44:47.288Z,47.50
2022-07-31T18:47:15.628Z,47.46
2022-07-31T18:50:59.790Z,47.55
2022-07-31T18:52:33.677Z,47.56
2022-07-31T18:55:01.957Z,47.34
2022-07-31T18:57:30.602Z,48.21
2022-07-31T18:59:58.827Z,48.48
2022-07-31T19:02:28.059Z,48.08
2022-07-31T19:04:56.516Z,48.66
2022-07-31T19:07:25.612Z,49.12
2022-07-31T19:09:55.517Z,50.79
2022-07-31T19:12:24.126Z,51.84
2022-07-31T19:14:52.388Z,52.34
2022-07-31T19:17:21.598Z,52.84
2022-07-31T19:19:54.956Z,53.28
2022-07-31T19:22:28.696Z,53.34
2022-07-31T19:24:58.383Z,54.19
2022-07-31T19:27:48.525Z,54.65
2022-07-31T19:30:15.698Z,54.57
2022-07-31T19:32:44.314Z,55.10
2022-07-31T19:35:12.569Z,55.09
2022-07-31T19:37:40.905Z,54.94
2022-07-31T19:40:12.082Z,55.73
2022-07-31T19:42:40.483Z,55.73
2022-07-31T19:45:09.759Z,56.37
2022-07-31T19:47:38.321Z,56.49
2022-07-31T19:50:08.146Z,57.17
2022-07-31T19:52:36.353Z,56.99
2022-07-31T19:55:05.062Z,57.05
2022-07-31T19:57:34.684Z,56.94
2022-07-31T20:00:03.117Z,57.43
2022-07-31T20:02:37.376Z,56.68
2022-07-31T20:05:07.289Z,57.22
2022-07-31T20:07:36.540Z,57.77
2022-07-31T20:10:06.515Z,57.26
2022-07-31T20:12:36.141Z,57.68
2022-07-31T20:15:04.749Z,57.96
2022-07-31T20:17:32.965Z,58.83
2022-07-31T20:20:02.818Z,59.00
2022-07-31T20:22:44.361Z,59.10
2022-07-31T20:25:20.063Z,59.61
2022-07-31T20:27:50.523Z,59.63
2022-07-31T20:30:21.773Z,59.77
2022-07-31T20:32:50.347Z,59.87
2022-07-31T20:35:29.066Z,60.35
2022-07-31T20:38:09.030Z,60.12
2022-07-31T20:40:52.851Z,60.02
2022-07-31T20:43:24.518Z,60.28
2022-07-31T20:45:54.051Z,59.98
2022-07-31T20:48:24.530Z,60.80
2022-07-31T20:50:53.294Z,60.92
2022-07-31T20:53:23.048Z,60.88
2022-07-31T20:55:56.421Z,61.23
2022-07-31T20:58:28.383Z,61.99
2022-07-31T21:01:01.518Z,62.00
2022-07-31T21:03:29.932Z,62.30
2022-07-31T21:05:58.206Z,62.59
2022-07-31T21:08:26.863Z,63.66
2022-07-31T21:10:55.338Z,63.64
2022-07-31T21:13:23.874Z,64.17
2022-07-31T21:15:53.749Z,64.07
2022-07-31T21:18:23.014Z,64.53
2022-07-31T21:20:53.730Z,64.89
2022-07-31T21:23:24.204Z,64.19
2022-07-31T21:25:53.946Z,64.75
2022-07-31T21:28:23.552Z,64.91
2022-07-31T21:30:56.235Z,64.37
2022-07-31T21:33:25.600Z,64.41
2022-07-31T21:35:54.512Z,64.57
2022-07-31T21:38:23.386Z,65.08
2022-07-31T21:40:53.891Z,65.22
2022-07-31T21:43:23.104Z,65.45
2022-07-31T21:45:57.256Z,65.15
2022-07-31T21:48:31.381Z,65.43
2022-07-31T21:51:00.823Z,64.95
2022-07-31T21:53:29.142Z,64.94
2022-07-31T21:56:00.492Z,65.22
2022-07-31T21:58:28.794Z,65.58
2022-07-31T22:00:58.445Z,65.88
2022-07-31T22:03:26.798Z,65.48
2022-07-31T22:06:26.116Z,65.23
2022-07-31T22:08:54.624Z,65.69
2022-07-31T22:11:23.058Z,66.38
2022-07-31T22:13:51.295Z,67.44
2022-07-31T22:16:20.933Z,67.84
2022-07-31T22:18:50.091Z,68.32
2022-07-31T22:21:19.578Z,68.23
2022-07-31T22:23:48.302Z,67.84
2022-07-31T22:26:16.901Z,68.10
2022-07-31T22:28:45.937Z,67.67
2022-07-31T22:31:14.763Z,67.54
2022-07-31T22:33:44.719Z,66.83
2022-07-31T22:36:13.298Z,67.42
2022-07-31T22:38:45.036Z,67.66
2022-07-31T22:41:14.354Z,67.76
2022-07-31T22:44:11.996Z,68.25
2022-07-31T22:46:32.719Z,67.71
2022-07-31T22:49:04.136Z,67.39
2022-07-31T22:51:36.649Z,68.20
2022-07-31T22:54:06.660Z,68.05
2022-07-31T22:56:34.931Z,68.97
2022-07-31T22:59:03.209Z,68.38
2022-07-31T23:01:31.406Z,68.91
2022-07-31T23:03:59.608Z,68.38
2022-07-31T23:06:32.285Z,68.28
2022-07-31T23:09:02.338Z,68.19
2022-07-31T23:11:30.658Z,68.34
2022-07-31T23:13:58.948Z,68.33
2022-07-31T23:16:27.690Z,68.32
2022-07-31T23:18:56.301Z,68.95
2022-07-31T23:21:24.908Z,68.40
2022-07-31T23:23:54.578Z,65.64
2022-07-31T23:26:25.463Z,67.01
2022-07-31T23:28:55.637Z,66.41
2022-07-31T23:31:24.699Z,63.85
2022-07-31T23:33:53.930Z,62.49
2022-07-31T23:36:23.062Z,60.72
2022-07-31T23:38:51.896Z,60.49
2022-07-31T23:41:35.461Z,58.99
2022-07-31T23:44:04.936Z,59.72
2022-07-31T23:46:33.425Z,58.95
2022-07-31T23:49:02.688Z,58.81
2022-07-31T23:51:30.939Z,58.94
2022-07-31T23:53:59.158Z,58.99
2022-07-31T23:56:28.695Z,58.89
2022-07-31T23:58:56.937Z,58.64
